createdAt,value
2023-05-12T00:00:27.441Z,25.58
2023-05-12T00:02:56.754Z,25.52
2023-05-12T00:05:26.190Z,23.27
2023-05-12T00:07:55.462Z,20.05
2023-05-12T00:10:25.232Z,13.52
2023-05-12T00:12:56.474Z,13.40
2023-05-12T00:15:25.748Z,19.25
2023-05-12T00:17:54.988Z,25.60
2023-05-12T00:20:24.324Z,13.40
2023-05-12T00:22:53.559Z,20.67
2023-05-12T00:25:22.738Z,20.00
2023-05-12T00:27:51.894Z,42.40
2023-05-12T00:30:22.214Z,12.98
2023-05-12T00:32:51.794Z,19.38
2023-05-12T00:35:21.123Z,18.80
2023-05-12T00:37:50.312Z,24.58
2023-05-12T00:40:19.887Z,29.65
2023-05-12T00:42:49.349Z,19.08
2023-05-12T00:45:18.752Z,26.73
2023-05-12T00:47:48.169Z,23.73
2023-05-12T00:50:19.316Z,23.55
2023-05-12T00:52:50.996Z,21.38
2023-05-12T00:55:20.709Z,33.90
2023-05-12T00:57:50.053Z,27.98
2023-05-12T01:00:19.736Z,23.40
2023-05-12T01:02:49.479Z,12.90
2023-05-12T01:05:18.945Z,19.08
2023-05-12T01:07:49.739Z,16.80
2023-05-12T01:10:23.659Z,22.45
2023-05-12T01:12:53.023Z,20.10
2023-05-12T01:15:22.318Z,18.30
2023-05-12T01:18:03.471Z,21.80
2023-05-12T01:20:34.304Z,33.63
2023-05-12T01:23:04.630Z,18.52
2023-05-12T01:25:36.455Z,22.13
2023-05-12T01:28:10.711Z,16.25
2023-05-12T01:30:45.168Z,13.48
2023-05-12T01:33:17.869Z,12.43
2023-05-12T01:35:47.289Z,23.80
2023-05-12T01:38:16.517Z,17.42
2023-05-12T01:40:46.483Z,18.85
2023-05-12T01:43:15.800Z,15.05
2023-05-12T01:45:45.206Z,24.70
2023-05-12T01:48:14.586Z,12.60
2023-05-12T01:50:43.924Z,17.25
2023-05-12T01:53:13.505Z,12.63
2023-05-12T01:55:44.868Z,13.95
2023-05-12T01:58:14.221Z,11.65
2023-05-12T02:00:43.568Z,10.85
2023-05-12T02:03:12.898Z,13.40
2023-05-12T02:05:42.318Z,10.80
2023-05-12T02:08:11.532Z,8.55
2023-05-12T02:10:40.901Z,9.27
2023-05-12T02:13:10.222Z,8.50
2023-05-12T02:15:39.561Z,17.95
2023-05-12T02:18:08.932Z,17.52
2023-05-12T02:20:38.545Z,9.48
2023-05-12T02:23:07.873Z,10.80
2023-05-12T02:25:37.126Z,11.10
2023-05-12T02:28:09.090Z,8.18
2023-05-12T02:30:39.274Z,14.25
2023-05-12T02:33:08.581Z,12.93
2023-05-12T02:35:37.750Z,10.60
2023-05-12T02:38:07.115Z,10.88
2023-05-12T02:40:36.445Z,11.10
2023-05-12T02:43:05.865Z,8.48
2023-05-12T02:45:36.343Z,8.73
2023-05-12T02:48:05.922Z,16.55
2023-05-12T02:50:35.162Z,13.93
2023-05-12T02:53:04.419Z,12.90
2023-05-12T02:55:33.750Z,11.25
2023-05-12T02:58:02.968Z,12.77
2023-05-12T03:00:32.385Z,12.40
2023-05-12T03:03:01.725Z,12.65
2023-05-12T03:05:31.008Z,8.93
2023-05-12T03:08:00.950Z,17.75
2023-05-12T03:10:30.267Z,13.98
2023-05-12T03:12:59.490Z,11.68
2023-05-12T03:15:28.660Z,11.80
2023-05-12T03:17:57.893Z,7.05
2023-05-12T03:20:27.174Z,6.63
2023-05-12T03:22:56.547Z,5.18
2023-05-12T03:25:25.823Z,17.02
2023-05-12T03:27:55.049Z,13.60
2023-05-12T03:30:24.318Z,12.38
2023-05-12T03:32:53.493Z,11.10
2023-05-12T03:35:22.867Z,12.35
2023-05-12T03:37:52.088Z,14.57
2023-05-12T03:40:21.902Z,10.38
2023-05-12T03:42:51.325Z,17.55
2023-05-12T03:45:20.622Z,18.33
2023-05-12T03:47:49.936Z,12.73
2023-05-12T03:50:19.709Z,13.30
2023-05-12T03:52:49.055Z,15.73
2023-05-12T03:55:18.538Z,14.65
2023-05-12T03:57:50.118Z,9.93
2023-05-12T04:00:20.396Z,11.98
2023-05-12T04:02:49.856Z,13.02
2023-05-12T04:05:19.185Z,10.30
2023-05-12T04:07:48.480Z,12.32
2023-05-12T04:10:17.852Z,9.10
2023-05-12T04:12:47.157Z,14.40
2023-05-12T04:15:16.747Z,10.25
2023-05-12T04:17:45.939Z,7.32
2023-05-12T04:20:15.169Z,11.18
2023-05-12T04:22:45.327Z,10.20
2023-05-12T04:25:14.483Z,10.05
2023-05-12T04:27:43.683Z,9.93
2023-05-12T04:30:13.147Z,20.40
2023-05-12T04:32:42.289Z,10.25
2023-05-12T04:35:11.629Z,10.93
2023-05-12T04:37:40.871Z,13.25
2023-05-12T04:40:11.235Z,13.07
2023-05-12T04:42:40.536Z,7.75
2023-05-12T04:45:10.834Z,11.25
2023-05-12T04:47:40.256Z,10.07
2023-05-12T04:50:11.656Z,4.82
2023-05-12T04:52:41.423Z,5.88
2023-05-12T04:55:11.613Z,7.60
2023-05-12T04:57:42.287Z,8.75
2023-05-12T05:00:12.529Z,6.13
2023-05-12T05:02:42.528Z,9.25
2023-05-12T05:05:12.885Z,14.95
2023-05-12T05:07:42.082Z,10.80
2023-05-12T05:10:12.037Z,12.07
2023-05-12T05:12:41.385Z,8.70
2023-05-12T05:15:12.508Z,6.10
2023-05-12T05:17:44.172Z,11.18
2023-05-12T05:20:15.536Z,9.38
2023-05-12T05:22:45.094Z,6.60
2023-05-12T05:25:15.108Z,11.65
2023-05-12T05:27:44.369Z,7.43
2023-05-12T05:30:14.047Z,12.63
2023-05-12T05:32:43.438Z,11.23
2023-05-12T05:35:12.755Z,7.82
2023-05-12T05:37:42.488Z,8.20
2023-05-12T05:40:12.307Z,14.52
2023-05-12T05:42:41.693Z,14.77
2023-05-12T05:45:11.748Z,11.82
2023-05-12T05:47:41.265Z,7.00
2023-05-12T05:50:11.197Z,8.85
2023-05-12T05:52:40.431Z,6.55
2023-05-12T05:55:10.029Z,5.22
2023-05-12T05:57:39.442Z,6.93
2023-05-12T06:00:10.867Z,17.00
2023-05-12T06:02:40.407Z,3.85
2023-05-12T06:05:10.688Z,9.90
2023-05-12T06:07:40.112Z,4.50
2023-05-12T06:10:10.141Z,8.93
2023-05-12T06:12:41.514Z,7.80
2023-05-12T06:15:12.041Z,6.25
2023-05-12T06:17:41.648Z,7.45
2023-05-12T06:20:11.556Z,11.13
2023-05-12T06:22:43.168Z,7.63
2023-05-12T06:25:12.738Z,6.13
2023-05-12T06:27:42.090Z,12.15
2023-05-12T06:30:14.941Z,11.20
2023-05-12T06:32:45.324Z,11.20
2023-05-12T06:35:14.667Z,8.70
2023-05-12T06:37:45.846Z,6.43
2023-05-12T06:40:15.466Z,5.15
2023-05-12T06:42:45.331Z,4.53
2023-05-12T06:45:14.679Z,7.05
2023-05-12T06:47:44.301Z,5.20
2023-05-12T06:50:13.628Z,10.23
2023-05-12T06:52:42.936Z,6.85
2023-05-12T06:55:12.298Z,6.03
2023-05-12T06:57:42.497Z,8.93
2023-05-12T07:00:12.449Z,10.05
2023-05-12T07:02:41.787Z,5.57
2023-05-12T07:05:11.488Z,11.48
2023-05-12T07:07:40.778Z,14.48
2023-05-12T07:10:10.579Z,20.42
2023-05-12T07:12:40.398Z,10.15
2023-05-12T07:15:10.951Z,12.65
2023-05-12T07:17:40.167Z,7.20
2023-05-12T07:20:10.815Z,7.90
2023-05-12T07:22:39.928Z,9.48
2023-05-12T07:25:09.701Z,13.55
2023-05-12T07:27:38.949Z,13.13
2023-05-12T07:30:09.710Z,15.63
2023-05-12T07:32:39.110Z,14.60
2023-05-12T07:35:08.987Z,15.27
2023-05-12T07:37:38.172Z,10.63
2023-05-12T07:40:08.381Z,11.95
2023-05-12T07:42:37.509Z,10.07
2023-05-12T07:45:07.113Z,15.35
2023-05-12T07:47:36.426Z,11.75
2023-05-12T07:50:05.955Z,10.63
2023-05-12T07:52:35.364Z,11.45
2023-05-12T07:55:04.624Z,6.53
2023-05-12T07:57:33.716Z,10.05
2023-05-12T08:00:02.844Z,6.97
2023-05-12T08:02:32.078Z,10.02
2023-05-12T08:05:01.334Z,9.93
2023-05-12T08:07:30.534Z,9.60
2023-05-12T08:09:59.938Z,11.05
2023-05-12T08:12:29.054Z,11.00
2023-05-12T08:14:58.328Z,11.85
2023-05-12T08:17:29.257Z,10.77
2023-05-12T08:19:58.773Z,15.57
2023-05-12T08:22:28.013Z,15.95
2023-05-12T08:24:57.052Z,13.88
2023-05-12T08:27:26.283Z,10.85
2023-05-12T08:29:55.455Z,14.13
2023-05-12T08:32:24.834Z,12.02
2023-05-12T08:34:54.090Z,13.30
2023-05-12T08:37:23.262Z,10.02
2023-05-12T08:39:53.916Z,15.55
2023-05-12T08:43:24.032Z,14.45
2023-05-12T08:45:58.617Z,12.48
2023-05-12T08:48:30.527Z,12.95
2023-05-12T08:51:00.741Z,14.68
2023-05-12T08:53:31.424Z,15.48
2023-05-12T08:58:42.214Z,18.02
2023-05-12T09:01:15.619Z,10.20
2023-05-12T09:03:45.477Z,14.10
2023-05-12T09:06:15.969Z,17.02
2023-05-12T09:08:46.579Z,20.60
2023-05-12T09:11:17.621Z,14.77
2023-05-12T09:14:10.038Z,25.65
2023-05-12T09:16:51.918Z,20.50
2023-05-12T09:19:24.033Z,17.55
2023-05-12T09:21:53.985Z,21.88
2023-05-12T09:24:35.927Z,15.57
2023-05-12T09:27:06.167Z,17.55
2023-05-12T09:29:45.066Z,15.07
2023-05-12T09:32:35.251Z,16.60
2023-05-12T09:35:12.196Z,13.55
2023-05-12T09:37:41.834Z,19.80
2023-05-12T09:40:17.249Z,11.65
2023-05-12T09:42:47.699Z,14.07
2023-05-12T09:45:17.253Z,11.93
2023-05-12T09:47:46.447Z,10.43
2023-05-12T09:50:15.630Z,8.80
2023-05-12T09:52:44.998Z,9.68
2023-05-12T09:55:15.354Z,8.10
2023-05-12T09:57:46.892Z,8.73
2023-05-12T10:00:37.049Z,8.15
2023-05-12T10:03:18.794Z,6.13
2023-05-12T10:05:57.276Z,8.80
2023-05-12T10:11:07.910Z,7.25
2023-05-12T10:13:37.504Z,8.52
2023-05-12T10:16:08.278Z,10.45
2023-05-12T10:18:38.452Z,18.92
2023-05-12T10:21:09.433Z,14.10
2023-05-12T10:23:45.282Z,12.35
2023-05-12T10:26:15.463Z,16.45
2023-05-12T10:28:45.887Z,11.30
2023-05-12T10:31:16.856Z,14.88
2023-05-12T10:33:56.762Z,14.40
2023-05-12T10:36:26.237Z,12.88
2023-05-12T10:38:57.166Z,15.45
2023-05-12T10:41:34.978Z,18.00
2023-05-12T10:44:04.181Z,12.45
2023-05-12T10:46:33.912Z,13.27
2023-05-12T10:49:09.597Z,10.40
2023-05-12T10:51:49.431Z,7.63
2023-05-12T10:54:25.972Z,15.18
2023-05-12T10:57:03.020Z,11.60
2023-05-12T10:59:33.029Z,17.08
2023-05-12T11:02:05.341Z,12.52
2023-05-12T11:04:54.210Z,14.77
2023-05-12T11:07:30.969Z,14.68
2023-05-12T11:10:05.477Z,14.02
2023-05-12T11:12:36.968Z,12.23
2023-05-12T11:15:08.104Z,10.85
2023-05-12T11:17:41.880Z,11.23
2023-05-12T11:20:12.172Z,8.48
2023-05-12T11:22:44.293Z,8.15
2023-05-12T11:25:14.923Z,7.30
2023-05-12T11:27:52.224Z,23.35
2023-05-12T11:30:21.572Z,20.85
2023-05-12T11:33:02.048Z,16.92
2023-05-12T11:35:33.503Z,15.60
2023-05-12T11:38:03.833Z,14.10
2023-05-12T11:40:33.652Z,13.43
2023-05-12T11:43:12.965Z,11.73
2023-05-12T11:45:42.852Z,11.68
2023-05-12T11:48:15.536Z,11.90
2023-05-12T11:50:50.043Z,11.00
2023-05-12T11:53:22.348Z,6.70
2023-05-12T11:55:57.340Z,8.90
2023-05-12T11:58:31.657Z,11.05
2023-05-12T12:01:13.157Z,11.40
2023-05-12T12:03:50.722Z,18.80
2023-05-12T12:06:22.876Z,17.83
2023-05-12T12:09:02.774Z,26.08
2023-05-12T12:11:35.761Z,18.80
2023-05-12T12:14:05.512Z,20.00
2023-05-12T12:16:37.836Z,12.35
2023-05-12T12:19:11.275Z,13.65
2023-05-12T12:21:44.513Z,16.75
2023-05-12T12:24:18.156Z,20.48
2023-05-12T12:26:50.207Z,13.55
2023-05-12T12:29:24.837Z,23.05
2023-05-12T12:32:00.589Z,25.13
2023-05-12T12:34:35.846Z,18.60
2023-05-12T12:37:13.364Z,22.30
2023-05-12T12:39:51.900Z,16.67
2023-05-12T12:42:24.504Z,18.67
2023-05-12T12:44:56.784Z,14.20
2023-05-12T12:47:26.099Z,20.92
2023-05-12T12:49:59.529Z,23.83
2023-05-12T12:52:31.139Z,14.00
2023-05-12T12:55:01.632Z,13.82
2023-05-12T12:57:35.056Z,17.88
2023-05-12T13:00:07.599Z,22.35
2023-05-12T13:02:40.527Z,17.33
2023-05-12T13:05:10.447Z,17.35
2023-05-12T13:07:40.902Z,17.88
2023-05-12T13:10:12.550Z,17.60
2023-05-12T13:12:46.079Z,22.77
2023-05-12T13:15:23.104Z,17.85
2023-05-12T13:17:57.378Z,14.15
2023-05-12T13:20:28.559Z,16.52
2023-05-12T13:23:03.271Z,17.35
2023-05-12T13:25:35.200Z,15.50
2023-05-12T13:28:08.196Z,21.85
2023-05-12T13:30:42.230Z,19.95
2023-05-12T13:33:14.482Z,21.63
2023-05-12T13:35:43.969Z,27.50
2023-05-12T13:38:13.167Z,20.48
2023-05-12T13:40:43.001Z,12.82
2023-05-12T13:43:13.423Z,16.38
2023-05-12T13:45:42.583Z,16.58
2023-05-12T13:48:11.994Z,13.45
2023-05-12T13:50:41.526Z,11.88
2023-05-12T13:53:10.803Z,15.00
2023-05-12T13:55:40.934Z,16.33
2023-05-12T13:58:10.378Z,11.75
2023-05-12T14:00:39.637Z,16.40
2023-05-12T14:03:09.319Z,15.68
2023-05-12T14:05:38.576Z,19.02
2023-05-12T14:08:09.835Z,21.23
2023-05-12T14:10:39.068Z,13.57
2023-05-12T14:13:10.657Z,16.80
2023-05-12T14:15:48.516Z,13.30
2023-05-12T14:18:19.217Z,19.38
2023-05-12T14:20:49.067Z,16.70
2023-05-12T14:23:18.280Z,14.50
2023-05-12T14:25:47.501Z,16.42
2023-05-12T14:28:16.918Z,19.42
2023-05-12T14:30:46.255Z,13.48
2023-05-12T14:33:15.441Z,13.73
2023-05-12T14:35:52.827Z,16.10
2023-05-12T14:38:28.948Z,17.10
2023-05-12T14:40:58.469Z,14.15
2023-05-12T14:43:27.608Z,20.85
2023-05-12T14:45:56.894Z,15.75
2023-05-12T14:48:29.566Z,13.95
2023-05-12T14:50:59.532Z,17.40
2023-05-12T14:53:28.781Z,14.57
2023-05-12T14:55:57.952Z,15.10
2023-05-12T14:58:27.290Z,10.68
2023-05-12T15:01:00.304Z,15.60
2023-05-12T15:03:29.761Z,14.95
2023-05-12T15:06:06.390Z,17.10
2023-05-12T15:08:36.579Z,11.90
2023-05-12T15:11:06.017Z,13.63
2023-05-12T15:13:35.184Z,15.65
2023-05-12T15:16:05.655Z,13.10
2023-05-12T15:18:35.019Z,17.73
2023-05-12T15:21:04.281Z,20.58
2023-05-12T15:23:33.551Z,20.70
2023-05-12T15:26:27.010Z,18.88
2023-05-12T15:28:57.595Z,17.50
2023-05-12T15:31:29.515Z,16.70
2023-05-12T15:33:59.378Z,15.27
2023-05-12T15:36:28.608Z,20.27
2023-05-12T15:38:57.973Z,17.60
2023-05-12T15:41:27.152Z,19.17
2023-05-12T15:43:56.310Z,17.85
2023-05-12T15:46:25.547Z,16.38
2023-05-12T15:48:54.762Z,18.23
2023-05-12T15:51:23.831Z,21.02
2023-05-12T15:53:53.548Z,12.07
2023-05-12T15:56:23.973Z,19.75
2023-05-12T15:58:53.200Z,14.82
2023-05-12T16:01:22.354Z,16.48
2023-05-12T16:03:55.782Z,16.50
2023-05-12T16:06:25.059Z,17.35
2023-05-12T16:08:54.362Z,15.45
2023-05-12T16:11:23.646Z,19.98
2023-05-12T16:13:54.344Z,15.80
2023-05-12T16:16:24.189Z,22.55
2023-05-12T16:18:53.487Z,18.60
2023-05-12T16:21:23.014Z,18.10
2023-05-12T16:23:52.377Z,18.00
2023-05-12T16:26:21.641Z,18.67
2023-05-12T16:28:50.739Z,19.92
2023-05-12T16:31:20.699Z,24.92
2023-05-12T16:33:50.034Z,22.83
2023-05-12T16:36:19.879Z,23.98
2023-05-12T16:38:49.544Z,24.35
2023-05-12T16:41:19.468Z,20.00
2023-05-12T16:43:48.798Z,19.02
2023-05-12T16:46:18.020Z,27.77
2023-05-12T16:48:47.245Z,23.15
2023-05-12T16:51:16.440Z,19.92
2023-05-12T16:53:45.841Z,26.35
2023-05-12T16:56:15.067Z,20.73
2023-05-12T16:58:45.247Z,29.58
2023-05-12T17:01:14.559Z,22.15
2023-05-12T17:03:43.858Z,20.77
2023-05-12T17:06:13.067Z,19.45
2023-05-12T17:08:42.617Z,29.40
2023-05-12T17:11:12.163Z,27.50
2023-05-12T17:13:41.425Z,20.83
2023-05-12T17:16:10.828Z,20.98
2023-05-12T17:21:12.507Z,22.77
2023-05-12T17:23:42.331Z,15.45
2023-05-12T17:26:11.517Z,19.25
2023-05-12T17:28:40.712Z,20.33
2023-05-12T17:31:10.264Z,19.65
2023-05-12T17:33:39.508Z,14.35
2023-05-12T17:36:12.854Z,26.17
2023-05-12T17:38:43.057Z,16.27
2023-05-12T17:41:12.363Z,19.25
2023-05-12T17:43:42.365Z,19.92
2023-05-12T17:46:11.693Z,17.92
2023-05-12T17:48:41.308Z,15.05
2023-05-12T17:51:10.506Z,12.95
2023-05-12T17:53:39.685Z,18.05
2023-05-12T17:56:09.064Z,15.75
2023-05-12T17:58:38.388Z,11.13
2023-05-12T18:01:07.660Z,12.20
2023-05-12T18:03:37.765Z,12.68
2023-05-12T18:06:07.064Z,9.68
2023-05-12T18:08:36.298Z,15.05
2023-05-12T18:11:05.526Z,14.40
2023-05-12T18:13:35.300Z,15.00
2023-05-12T18:16:04.756Z,13.77
2023-05-12T18:18:34.604Z,10.43
2023-05-12T18:21:03.807Z,9.93
2023-05-12T18:23:32.938Z,15.10
2023-05-12T18:26:02.237Z,10.73
2023-05-12T18:28:31.379Z,8.80
2023-05-12T18:31:06.017Z,11.95
2023-05-12T18:33:44.156Z,7.95
2023-05-12T18:36:13.511Z,8.43
2023-05-12T18:38:44.192Z,7.45
2023-05-12T18:41:13.813Z,9.45
2023-05-12T18:43:45.004Z,8.93
2023-05-12T18:46:14.326Z,8.80
2023-05-12T18:48:43.429Z,7.97
2023-05-12T18:51:13.305Z,11.98
2023-05-12T18:53:42.360Z,13.50
2023-05-12T18:56:11.489Z,9.73
2023-05-12T18:58:40.647Z,9.38
2023-05-12T19:01:09.787Z,13.38
2023-05-12T19:03:38.964Z,10.40
2023-05-12T19:06:08.128Z,11.13
2023-05-12T19:08:38.339Z,8.35
2023-05-12T19:11:07.628Z,15.15
2023-05-12T19:13:41.726Z,9.10
2023-05-12T19:16:10.840Z,8.13
2023-05-12T19:18:40.156Z,11.00
2023-05-12T19:21:09.676Z,8.35
2023-05-12T19:23:38.799Z,8.65
2023-05-12T19:26:08.274Z,8.60
2023-05-12T19:28:37.837Z,14.98
2023-05-12T19:31:07.128Z,8.73
2023-05-12T19:33:37.063Z,10.35
2023-05-12T19:36:06.888Z,14.07
2023-05-12T19:38:38.034Z,12.65
2023-05-12T19:41:07.234Z,7.65
2023-05-12T19:43:36.369Z,9.13
2023-05-12T19:46:05.548Z,5.43
2023-05-12T19:48:34.740Z,10.65
2023-05-12T19:51:04.118Z,7.65
2023-05-12T19:53:33.304Z,10.05
2023-05-12T19:56:03.188Z,8.50
2023-05-12T19:58:32.427Z,14.30
2023-05-12T20:01:01.632Z,7.20
2023-05-12T20:03:30.904Z,10.13
2023-05-12T20:06:00.202Z,13.15
2023-05-12T20:08:29.390Z,6.63
2023-05-12T20:10:58.864Z,9.32
2023-05-12T20:13:28.032Z,12.82
2023-05-12T20:15:57.411Z,10.60
2023-05-12T20:18:26.957Z,9.65
2023-05-12T20:20:56.722Z,10.63
2023-05-12T20:23:25.958Z,10.80
2023-05-12T20:25:55.233Z,11.52
2023-05-12T20:28:24.975Z,12.43
2023-05-12T20:30:54.365Z,8.57
2023-05-12T20:33:23.758Z,9.98
2023-05-12T20:35:52.967Z,5.68
2023-05-12T20:38:22.287Z,7.85
2023-05-12T20:40:51.761Z,8.05
2023-05-12T20:43:20.867Z,9.43
2023-05-12T20:45:50.020Z,8.50
2023-05-12T20:48:19.162Z,9.48
2023-05-12T20:50:48.332Z,12.52
2023-05-12T20:53:18.202Z,6.63
2023-05-12T20:55:47.302Z,6.38
2023-05-12T20:58:16.587Z,12.25
2023-05-12T21:00:45.692Z,8.20
2023-05-12T21:03:17.870Z,8.40
2023-05-12T21:05:48.975Z,12.77
2023-05-12T21:08:18.171Z,12.75
2023-05-12T21:10:47.965Z,10.35
2023-05-12T21:13:17.156Z,7.20
2023-05-12T21:15:46.425Z,10.13
2023-05-12T21:18:15.484Z,13.27
2023-05-12T21:20:44.848Z,11.57
2023-05-12T21:23:14.659Z,8.43
2023-05-12T21:25:43.771Z,13.10
2023-05-12T21:28:12.889Z,9.13
2023-05-12T21:30:42.000Z,11.77
2023-05-12T21:33:11.334Z,10.65
2023-05-12T21:35:40.518Z,11.82
2023-05-12T21:38:11.024Z,8.50
2023-05-12T21:40:40.779Z,11.40
2023-05-12T21:43:09.949Z,12.73
2023-05-12T21:45:39.108Z,12.55
2023-05-12T21:48:08.852Z,6.28
2023-05-12T21:50:38.231Z,6.78
2023-05-12T21:53:07.477Z,12.23
2023-05-12T21:55:36.647Z,11.65
2023-05-12T21:58:05.846Z,10.18
2023-05-12T22:00:34.948Z,4.72
2023-05-12T22:03:04.893Z,13.68
2023-05-12T22:05:34.194Z,11.75
2023-05-12T22:08:03.319Z,11.10
2023-05-12T22:10:33.021Z,9.50
2023-05-12T22:13:02.408Z,11.50
2023-05-12T22:15:31.693Z,12.98
2023-05-12T22:18:01.713Z,8.68
2023-05-12T22:20:30.960Z,10.52
2023-05-12T22:23:00.454Z,8.95
2023-05-12T22:25:29.726Z,8.43
2023-05-12T22:27:58.843Z,10.77
2023-05-12T22:30:28.055Z,17.83
2023-05-12T22:32:57.603Z,8.20
2023-05-12T22:35:26.856Z,7.18
2023-05-12T22:37:56.765Z,7.72
2023-05-12T22:40:27.994Z,9.30
2023-05-12T22:42:57.501Z,7.70
2023-05-12T22:45:26.899Z,9.02
2023-05-12T22:47:56.492Z,13.73
2023-05-12T22:50:25.753Z,8.45
2023-05-12T22:52:58.175Z,6.30
2023-05-12T22:55:31.578Z,8.95
2023-05-12T22:58:01.068Z,11.45
2023-05-12T23:00:30.430Z,7.20
2023-05-12T23:03:01.036Z,6.53
2023-05-12T23:05:30.115Z,15.32
2023-05-12T23:07:59.237Z,7.85
2023-05-12T23:10:28.433Z,9.43
2023-05-12T23:12:57.661Z,11.38
2023-05-12T23:15:26.937Z,13.05
2023-05-12T23:17:56.111Z,10.85
2023-05-12T23:20:25.327Z,6.82
2023-05-12T23:22:54.413Z,8.13
2023-05-12T23:25:23.678Z,7.07
2023-05-12T23:27:52.800Z,10.40
2023-05-12T23:30:22.179Z,9.98
2023-05-12T23:32:51.450Z,8.93
2023-05-12T23:35:20.660Z,10.25
2023-05-12T23:37:49.809Z,8.45
2023-05-12T23:40:19.049Z,5.65
2023-05-12T23:42:51.208Z,9.80
2023-05-12T23:45:21.121Z,9.10
2023-05-12T23:47:51.241Z,19.88
2023-05-12T23:50:20.583Z,9.35
2023-05-12T23:52:49.921Z,9.65
2023-05-12T23:55:19.209Z,7.05
2023-05-12T23:57:48.667Z,3.88
